Time;durP1;ratioP1;P1;durP2;ratioP2;P2;SDS_P1;SDS_P2;PMS_P1;PMS_P2;Temp;Humidity;BMP_temperature;BMP_pressure;BME280_temperature;BME280_humidity;BME280_pressure;Samples;Min_cycle;Max_cycle;Signal;HPM_P1;HPM_P2
2023/10/18 00:02:25;;;;;;;35.50;19.00;;;;;;;1.54;69.03;100480.91;131276;1256;106383;-78
2023/10/18 00:05:31;;;;;;;37.50;19.90;;;;;;;1.52;69.06;100474.70;131312;1256;108777;-78
2023/10/18 00:08:36;;;;;;;34.90;18.90;;;;;;;1.49;68.92;100474.33;131122;1256;107804;-77
2023/10/18 00:11:42;;;;;;;34.90;18.70;;;;;;;1.47;69.08;100467.98;131237;1254;106360;-77
2023/10/18 00:14:50;;;;;;;36.90;18.90;;;;;;;1.44;69.17;100465.16;131493;1253;108690;-77
2023/10/18 00:17:56;;;;;;;37.80;18.50;;;;;;;1.41;69.09;100465.34;131290;1253;107842;-77
2023/10/18 00:21:04;;;;;;;36.70;18.80;;;;;;;1.38;69.13;100460.59;131091;1253;107582;-74
2023/10/18 00:24:10;;;;;;;34.00;17.20;;;;;;;1.33;69.10;100460.38;131070;1256;107691;-77
2023/10/18 00:27:16;;;;;;;33.00;17.20;;;;;;;1.27;69.12;100457.73;131028;1253;108341;-77
2023/10/18 00:30:21;;;;;;;32.70;16.80;;;;;;;1.23;68.96;100459.25;131268;1256;106692;-78
2023/10/18 00:33:28;;;;;;;34.50;18.00;;;;;;;1.20;69.24;100459.05;131222;1264;108602;-77
2023/10/18 00:36:34;;;;;;;32.80;16.50;;;;;;;1.19;69.16;100460.64;130960;1256;106581;-76
2023/10/18 00:39:39;;;;;;;31.90;16.00;;;;;;;1.21;69.22;100461.44;130946;1258;106410;-75
2023/10/18 00:42:45;;;;;;;28.90;14.30;;;;;;;1.25;69.19;100459.66;131095;1254;107710;-77
2023/10/18 00:45:52;;;;;;;32.20;15.90;;;;;;;1.28;69.06;100464.34;131388;1272;106703;-78
2023/10/18 00:48:59;;;;;;;30.40;16.50;;;;;;;1.33;69.13;100458.27;131236;1254;106526;-77
2023/10/18 00:52:07;;;;;;;28.80;16.60;;;;;;;1.38;69.13;100455.69;130998;1253;108572;-77
2023/10/18 00:55:12;;;;;;;29.80;16.10;;;;;;;1.38;69.00;100451.31;131038;1256;108359;-77
2023/10/18 00:58:19;;;;;;;31.10;16.10;;;;;;;1.36;69.05;100451.10;130839;1256;107832;-77
2023/10/18 01:01:25;;;;;;;31.60;17.40;;;;;;;1.35;69.06;100452.91;130912;1256;108490;-78
2023/10/18 01:04:34;;;;;;;33.50;17.10;;;;;;;1.34;69.03;100450.16;130904;1253;108888;-76
2023/10/18 01:07:41;;;;;;;29.60;16.80;;;;;;;1.31;68.72;100447.20;131011;1254;108685;-77
2023/10/18 01:10:50;;;;;;;33.10;17.50;;;;;;;1.23;68.96;100444.28;131288;1256;106900;-77
2023/10/18 01:14:00;;;;;;;30.90;16.70;;;;;;;1.15;69.00;100443.16;131130;1264;106580;-77
2023/10/18 01:17:06;;;;;;;30.50;16.10;;;;;;;1.11;69.06;100440.23;131378;1256;106608;-75
2023/10/18 01:20:33;;;;;;;28.10;16.60;;;;;;;1.10;69.06;100438.04;131076;1256;106983;-77
2023/10/18 01:23:39;;;;;;;30.10;16.50;;;;;;;1.08;69.17;100433.61;131072;1256;108744;-75
2023/10/18 01:26:45;;;;;;;30.80;17.20;;;;;;;1.05;69.08;100436.38;130838;1253;107524;-77
2023/10/18 01:29:51;;;;;;;30.50;17.00;;;;;;;1.02;69.05;100438.48;131137;1254;108557;-78
2023/10/18 01:32:56;;;;;;;31.80;17.10;;;;;;;0.98;68.93;100435.77;131307;1256;107655;-77
2023/10/18 01:36:02;;;;;;;30.30;16.90;;;;;;;0.91;69.27;100428.77;130988;1258;108699;-76
2023/10/18 01:39:20;;;;;;;31.50;17.10;;;;;;;0.90;69.31;100425.90;130874;1253;106584;-77
2023/10/18 01:42:30;;;;;;;31.50;17.30;;;;;;;0.86;68.80;100424.86;130947;1256;106197;-77
2023/10/18 01:45:37;;;;;;;31.70;17.80;;;;;;;0.75;69.01;100424.92;131076;1254;108709;-77
2023/10/18 01:48:50;;;;;;;34.00;18.30;;;;;;;0.73;69.01;100419.45;131043;1254;108616;-77
2023/10/18 01:51:57;;;;;;;33.00;17.50;;;;;;;0.68;69.06;100419.77;131088;1256;108088;-74
2023/10/18 01:55:05;;;;;;;33.80;17.20;;;;;;;0.66;69.22;100420.74;131037;1256;106413;-76
2023/10/18 01:58:11;;;;;;;30.60;16.80;;;;;;;0.63;69.31;100422.16;131096;1256;106879;-77
2023/10/18 02:01:17;;;;;;;32.50;17.00;;;;;;;0.61;69.34;100421.34;130903;1253;108584;-77
2023/10/18 02:04:26;;;;;;;31.70;17.40;;;;;;;0.51;69.08;100421.41;131304;1254;108761;-77
2023/10/18 02:07:32;;;;;;;35.00;17.70;;;;;;;0.49;69.51;100423.45;131166;1268;107022;-78
2023/10/18 02:10:40;;;;;;;30.50;16.90;;;;;;;0.49;69.55;100418.55;131141;1256;106951;-77
2023/10/18 02:13:46;;;;;;;32.70;16.10;;;;;;;0.50;69.49;100415.32;131184;1253;107272;-74
2023/10/18 02:16:51;;;;;;;28.30;15.10;;;;;;;0.54;69.68;100416.52;130960;1256;108608;-77
2023/10/18 02:19:59;;;;;;;28.70;13.90;;;;;;;0.61;69.62;100416.98;131228;1253;108380;-77
2023/10/18 02:23:11;;;;;;;29.30;15.40;;;;;;;0.69;69.56;100409.19;131151;1256;107656;-77
2023/10/18 02:26:30;;;;;;;28.90;15.00;;;;;;;0.75;69.33;100414.27;131198;1256;110283;-78
2023/10/18 02:29:35;;;;;;;25.30;13.90;;;;;;;0.81;69.44;100410.64;130980;1253;107776;-78
2023/10/18 02:32:41;;;;;;;26.60;14.70;;;;;;;0.83;69.43;100409.48;130949;1260;109102;-80
2023/10/18 02:35:47;;;;;;;26.80;14.60;;;;;;;0.85;69.45;100408.10;131063;1256;106847;-77
2023/10/18 02:38:53;;;;;;;33.50;16.20;;;;;;;0.86;69.45;100405.98;131296;1253;106252;-76
2023/10/18 02:41:59;;;;;;;29.90;15.90;;;;;;;0.85;69.61;100409.36;130896;1257;108609;-76
2023/10/18 02:45:12;;;;;;;30.90;15.30;;;;;;;0.82;69.55;100409.00;131001;1256;106893;-75
2023/10/18 02:48:22;;;;;;;35.20;17.00;;;;;;;0.77;69.61;100402.92;130938;1256;107614;-76
2023/10/18 02:51:28;;;;;;;29.60;16.00;;;;;;;0.73;69.46;100401.63;130861;1256;108172;-76
2023/10/18 02:54:35;;;;;;;30.70;16.10;;;;;;;0.70;69.63;100404.23;130992;1256;106856;-76
2023/10/18 02:57:46;;;;;;;29.90;14.90;;;;;;;0.68;69.61;100403.98;130738;1256;106776;-76
2023/10/18 03:00:51;;;;;;;27.10;15.40;;;;;;;0.62;69.40;100400.81;130973;1256;106946;-76
2023/10/18 03:04:00;;;;;;;29.80;16.30;;;;;;;0.59;69.68;100399.90;130947;1254;107116;-76
2023/10/18 03:07:08;;;;;;;29.90;17.10;;;;;;;0.57;69.63;100399.71;130970;1256;106604;-77
2023/10/18 03:10:20;;;;;;;29.10;16.10;;;;;;;0.55;69.46;100403.30;131009;1257;108884;-76
2023/10/18 03:13:31;;;;;;;29.20;15.40;;;;;;;0.51;69.57;100398.80;130825;1253;108075;-77
2023/10/18 03:16:40;;;;;;;32.00;16.90;;;;;;;0.47;69.60;100394.85;130882;1253;106918;-76
2023/10/18 03:19:49;;;;;;;29.20;16.10;;;;;;;0.40;69.55;100395.56;130941;1257;106342;-75
2023/10/18 03:22:56;;;;;;;29.40;15.80;;;;;;;0.37;69.68;100399.73;130731;1256;108693;-76
2023/10/18 03:26:08;;;;;;;32.60;16.20;;;;;;;0.25;68.95;100402.84;130941;1256;107716;-76
2023/10/18 03:29:15;;;;;;;31.20;15.90;;;;;;;0.17;69.41;100396.80;130932;1256;107677;-76
2023/10/18 03:32:21;;;;;;;31.00;16.20;;;;;;;0.16;69.72;100390.91;130947;1256;108785;-77
2023/10/18 03:35:31;;;;;;;32.30;16.20;;;;;;;0.16;69.81;100386.04;130930;1256;108632;-76
2023/10/18 03:38:41;;;;;;;29.50;15.90;;;;;;;0.12;69.86;100387.44;130979;1264;107721;-76
2023/10/18 03:41:48;;;;;;;32.30;15.40;;;;;;;0.10;69.76;100380.94;131002;1253;106920;-76
2023/10/18 03:44:54;;;;;;;29.80;16.00;;;;;;;0.12;69.83;100379.77;130853;1256;106494;-76
2023/10/18 03:48:12;;;;;;;25.30;13.80;;;;;;;0.19;69.79;100370.98;130936;1253;106076;-75
2023/10/18 03:51:20;;;;;;;31.10;15.10;;;;;;;0.24;69.79;100367.37;130865;1266;107713;-75
2023/10/18 03:54:28;;;;;;;27.30;15.10;;;;;;;0.27;69.31;100364.96;130973;1256;107725;-76
2023/10/18 03:57:39;;;;;;;27.90;15.00;;;;;;;0.20;69.27;100360.29;130816;1256;108737;-78
2023/10/18 04:00:47;;;;;;;29.30;14.40;;;;;;;0.19;69.59;100354.40;130813;1256;108752;-75
2023/10/18 04:03:54;;;;;;;26.60;14.50;;;;;;;0.23;69.80;100353.48;130957;1253;107693;-75
2023/10/18 04:07:01;;;;;;;27.10;15.00;;;;;;;0.23;69.74;100352.05;130902;1256;107701;-76
2023/10/18 04:10:12;;;;;;;28.60;15.30;;;;;;;0.22;69.72;100350.52;130972;1257;107698;-76
2023/10/18 04:13:18;;;;;;;29.90;16.10;;;;;;;0.20;69.80;100347.83;130887;1256;107799;-76
2023/10/18 04:16:30;;;;;;;27.30;15.00;;;;;;;0.19;69.97;100345.95;130956;1256;109321;-76
2023/10/18 04:19:36;;;;;;;29.60;15.60;;;;;;;0.18;69.93;100341.98;130898;1259;106963;-76
2023/10/18 04:22:42;;;;;;;25.90;15.00;;;;;;;0.19;69.85;100333.74;130874;1257;108808;-77
2023/10/18 04:25:57;;;;;;;29.00;15.60;;;;;;;0.17;69.86;100331.21;130988;1257;108647;-76
2023/10/18 04:29:10;;;;;;;29.30;16.60;;;;;;;0.15;70.05;100337.77;131007;1257;107711;-75
2023/10/18 04:32:18;;;;;;;27.50;15.90;;;;;;;0.13;69.94;100341.04;130924;1256;106498;-76
2023/10/18 04:35:29;;;;;;;28.70;16.10;;;;;;;0.10;70.00;100334.20;131031;1254;107708;-76
2023/10/18 04:38:43;;;;;;;25.10;14.90;;;;;;;0.08;69.95;100333.13;131043;1256;107121;-77
2023/10/18 04:41:49;;;;;;;24.90;14.70;;;;;;;0.05;69.98;100330.83;130902;1254;107687;-76
2023/10/18 04:44:57;;;;;;;26.20;14.70;;;;;;;0.01;69.91;100330.52;130862;1257;107565;-76
2023/10/18 04:48:06;;;;;;;27.30;14.50;;;;;;;-0.04;70.04;100332.69;130920;1256;108658;-76
2023/10/18 04:51:26;;;;;;;28.50;15.00;;;;;;;-0.04;70.17;100332.38;130924;1256;107001;-76
2023/10/18 04:54:41;;;;;;;24.80;14.40;;;;;;;-0.05;70.33;100333.30;130960;1255;108646;-75
2023/10/18 04:57:48;;;;;;;31.30;16.20;;;;;;;-0.06;70.31;100335.42;131048;1257;107684;-76
2023/10/18 05:00:57;;;;;;;46.90;23.50;;;;;;;-0.05;70.33;100342.39;130913;1256;108523;-77
2023/10/18 05:04:18;;;;;;;41.00;20.10;;;;;;;-0.04;70.32;100343.88;130883;1267;107754;-76
2023/10/18 05:07:41;;;;;;;35.60;16.50;;;;;;;0.01;70.38;100349.56;130925;1256;106580;-76
2023/10/18 05:10:47;;;;;;;26.50;15.50;;;;;;;0.09;70.44;100355.62;131000;1257;108613;-77
2023/10/18 05:13:56;;;;;;;28.80;15.30;;;;;;;0.17;70.28;100356.56;130931;1256;108792;-76
2023/10/18 05:17:04;;;;;;;39.70;20.80;;;;;;;0.23;70.27;100353.98;130984;1264;106712;-76
2023/10/18 05:23:35;;;;;;;25.20;13.40;;;;;;;0.33;70.39;100351.48;130977;1256;107766;-76
2023/10/18 05:26:44;;;;;;;27.30;14.10;;;;;;;0.37;70.28;100352.16;130936;1266;108648;-76
2023/10/18 05:29:52;;;;;;;24.60;13.60;;;;;;;0.40;70.26;100350.05;130881;1267;107131;-77
2023/10/18 05:33:04;;;;;;;22.80;13.60;;;;;;;0.41;70.37;100351.77;131016;1256;108044;-76
2023/10/18 05:36:29;;;;;;;26.30;15.00;;;;;;;0.44;70.30;100350.56;130920;1253;108451;-77
2023/10/18 05:39:49;;;;;;;26.50;14.90;;;;;;;0.43;70.34;100350.08;130814;1257;107686;-76
2023/10/18 05:42:54;;;;;;;40.80;19.00;;;;;;;0.44;70.45;100351.77;133141;1254;106459;-77
2023/10/18 05:46:07;;;;;;;29.40;15.40;;;;;;;0.45;70.66;100355.56;135103;1253;108202;-75
2023/10/18 05:49:16;;;;;;;27.70;15.00;;;;;;;0.46;70.53;100358.86;135007;1253;106422;-75
2023/10/18 05:52:36;;;;;;;25.90;14.50;;;;;;;0.50;70.71;100366.16;135064;1253;107709;-74
2023/10/18 05:55:44;;;;;;;25.40;14.50;;;;;;;0.55;70.58;100353.45;135029;1252;107724;-74
2023/10/18 05:59:01;;;;;;;24.60;13.90;;;;;;;0.61;70.77;100357.30;130918;1265;107245;-75
2023/10/18 06:02:11;;;;;;;29.20;15.20;;;;;;;0.69;70.88;100358.05;130920;1254;108046;-76
2023/10/18 06:05:16;;;;;;;25.40;14.70;;;;;;;0.77;71.00;100356.75;130637;1267;107010;-76
2023/10/18 06:08:23;;;;;;;31.40;18.70;;;;;;;0.83;71.04;100351.34;130614;1259;107320;-76
2023/10/18 06:11:29;;;;;;;30.70;18.00;;;;;;;0.88;71.12;100348.91;130686;1258;108358;-76
2023/10/18 06:14:40;;;;;;;28.70;15.90;;;;;;;0.91;71.31;100345.76;130630;1267;107011;-76
2023/10/18 06:17:52;;;;;;;24.30;14.00;;;;;;;0.97;71.33;100342.27;130675;1254;107644;-76
2023/10/18 06:20:59;;;;;;;;;;;;;;;1.07;71.46;100340.13;130674;1256;107276;-75
2023/10/18 06:24:10;;;;;;;22.10;13.60;;;;;;;1.19;71.47;100340.26;130730;1255;107279;-76
2023/10/18 06:27:16;;;;;;;24.90;12.50;;;;;;;1.35;71.55;100341.63;130695;1258;107181;-76
2023/10/18 06:30:24;;;;;;;26.30;14.40;;;;;;;1.50;71.68;100343.33;130707;1255;108571;-78
2023/10/18 06:33:35;;;;;;;24.10;13.50;;;;;;;1.64;71.77;100339.52;130685;1254;107615;-76
2023/10/18 06:36:41;;;;;;;24.50;14.00;;;;;;;1.75;71.88;100333.73;130689;1259;106483;-76
2023/10/18 06:39:46;;;;;;;23.60;13.60;;;;;;;1.84;72.15;100326.36;130651;1257;107001;-76
2023/10/18 06:42:52;;;;;;;25.60;14.80;;;;;;;1.92;72.39;100328.29;130729;1258;107768;-75
2023/10/18 06:45:57;;;;;;;24.90;14.20;;;;;;;2.00;72.55;100327.83;130695;1257;108617;-76
2023/10/18 06:49:10;;;;;;;25.00;14.40;;;;;;;2.06;72.68;100326.36;130674;1258;108769;-76
2023/10/18 06:52:17;;;;;;;22.70;13.60;;;;;;;2.15;73.20;100324.05;130622;1258;108060;-76
2023/10/18 06:55:35;;;;;;;22.20;12.90;;;;;;;2.23;73.37;100325.30;130475;1264;176284;-76
2023/10/18 06:58:44;;;;;;;22.10;13.60;;;;;;;2.34;73.93;100328.47;130705;1266;108722;-76
2023/10/18 07:01:54;;;;;;;25.30;14.60;;;;;;;2.45;74.32;100327.25;130620;1257;107610;-76
2023/10/18 07:05:00;;;;;;;23.80;13.10;;;;;;;2.58;74.84;100322.20;130907;1254;108662;-76
2023/10/18 07:08:18;;;;;;;23.90;13.40;;;;;;;2.73;74.97;100321.19;130887;1256;107459;-76
2023/10/18 07:11:26;;;;;;;23.00;12.00;;;;;;;2.94;75.59;100320.51;130902;1256;106718;-77
2023/10/18 07:14:32;;;;;;;22.50;13.40;;;;;;;3.14;75.66;100315.86;130839;1257;106816;-76
2023/10/18 07:17:37;;;;;;;22.90;13.70;;;;;;;3.34;75.76;100314.61;130905;1257;106217;-77
2023/10/18 07:20:49;;;;;;;21.80;13.10;;;;;;;3.53;76.09;100310.16;130839;1257;107726;-76
2023/10/18 07:23:55;;;;;;;21.70;13.60;;;;;;;3.69;76.29;100309.05;130873;1266;107225;-77
2023/10/18 07:27:03;;;;;;;22.90;13.20;;;;;;;3.86;76.34;100304.19;130912;1258;106277;-75
2023/10/18 07:30:15;;;;;;;23.50;13.40;;;;;;;4.00;76.40;100304.45;130894;1256;107661;-76
2023/10/18 07:33:23;;;;;;;22.80;13.80;;;;;;;4.12;76.75;100298.77;130817;1254;106621;-77
2023/10/18 07:36:29;;;;;;;22.30;12.70;;;;;;;4.26;77.02;100298.52;130904;1256;107159;-75
2023/10/18 07:39:35;;;;;;;18.80;11.50;;;;;;;4.42;76.99;100299.98;130884;1256;108767;-76
2023/10/18 07:42:42;;;;;;;19.20;12.20;;;;;;;4.59;77.06;100299.04;130901;1257;108369;-76
2023/10/18 07:45:55;;;;;;;22.50;12.90;;;;;;;4.76;77.12;100300.11;130877;1257;107495;-75
2023/10/18 07:49:04;;;;;;;20.60;12.90;;;;;;;4.92;77.23;100298.05;130847;1257;106578;-76
2023/10/18 07:52:10;;;;;;;20.60;13.60;;;;;;;5.09;77.41;100301.73;130941;1253;107478;-75
2023/10/18 07:55:17;;;;;;;21.70;13.60;;;;;;;5.22;77.15;100296.47;130895;1256;107679;-76
2023/10/18 07:58:24;;;;;;;19.80;10.30;;;;;;;5.34;77.18;100292.02;130925;1267;108653;-76
2023/10/18 08:01:51;;;;;;;17.40;9.70;;;;;;;5.46;77.37;100292.64;130882;1257;108713;-76
2023/10/18 08:05:00;;;;;;;14.10;9.50;;;;;;;5.64;77.52;100292.36;130858;1256;106808;-77
2023/10/18 08:08:08;;;;;;;15.20;8.70;;;;;;;5.81;77.44;100290.84;130912;1254;108700;-77
2023/10/18 08:11:14;;;;;;;12.60;8.90;;;;;;;5.96;77.18;100287.02;130841;1266;107300;-77
2023/10/18 08:14:24;;;;;;;13.30;8.20;;;;;;;6.08;76.91;100282.02;130849;1257;106887;-77
2023/10/18 08:17:42;;;;;;;13.40;8.80;;;;;;;6.21;76.97;100285.02;130894;1256;107755;-77
2023/10/18 08:21:06;;;;;;;13.80;8.60;;;;;;;6.32;76.85;100285.86;130951;1252;107670;-76
2023/10/18 08:24:20;;;;;;;11.90;7.50;;;;;;;6.45;76.47;100284.61;131055;1257;107280;-77
2023/10/18 08:27:25;;;;;;;10.60;7.10;;;;;;;6.56;76.30;100286.42;130888;1256;107320;-77
2023/10/18 08:31:02;;;;;;;10.20;7.20;;;;;;;6.64;76.08;100286.47;130946;1257;106888;-74
2023/10/18 08:34:06;;;;;;;9.50;6.30;;;;;;;6.73;75.82;100284.35;130963;1257;106516;-75
2023/10/18 08:37:13;;;;;;;9.50;5.90;;;;;;;6.81;75.73;100287.39;130903;1256;107701;-75
2023/10/18 08:40:27;;;;;;;9.10;6.70;;;;;;;6.90;75.47;100287.80;130963;1253;107912;-75
2023/10/18 08:43:36;;;;;;;9.40;6.40;;;;;;;7.05;75.61;100287.45;130858;1256;107478;-75
2023/10/18 08:46:52;;;;;;;10.30;6.10;;;;;;;7.20;75.26;100286.96;130893;1256;109084;-75
2023/10/18 08:49:57;;;;;;;8.30;5.60;;;;;;;7.32;75.00;100288.34;130884;1257;108543;-77
2023/10/18 08:53:04;;;;;;;8.50;5.30;;;;;;;7.43;74.81;100284.20;130930;1256;107512;-75
2023/10/18 08:56:10;;;;;;;9.40;5.60;;;;;;;7.53;74.63;100285.02;130999;1256;107063;-75
2023/10/18 08:59:18;;;;;;;9.60;6.20;;;;;;;7.58;73.01;100284.55;130851;1257;107803;-75
2023/10/18 09:02:24;;;;;;;8.90;6.40;;;;;;;7.64;73.77;100282.80;130947;1252;106950;-75
2023/10/18 09:05:31;;;;;;;9.70;7.10;;;;;;;7.70;72.94;100280.34;130874;1257;107625;-75
2023/10/18 09:08:42;;;;;;;8.90;6.60;;;;;;;7.75;73.46;100281.61;130889;1254;106328;-75
2023/10/18 09:11:48;;;;;;;9.00;6.20;;;;;;;7.82;73.63;100271.12;130934;1252;106813;-74
2023/10/18 09:14:54;;;;;;;10.40;6.20;;;;;;;7.90;73.86;100269.59;130849;1257;107774;-74
2023/10/18 09:18:04;;;;;;;8.30;5.80;;;;;;;7.96;73.71;100269.57;130930;1254;106946;-75
2023/10/18 09:21:17;;;;;;;8.90;5.70;;;;;;;8.01;72.19;100272.44;130939;1256;106397;-75
2023/10/18 09:24:30;;;;;;;8.90;6.10;;;;;;;8.10;72.08;100277.69;130897;1257;106775;-77
2023/10/18 09:27:36;;;;;;;9.50;5.70;;;;;;;8.17;72.91;100277.37;130909;1256;107900;-77
2023/10/18 09:30:41;;;;;;;9.20;6.20;;;;;;;8.25;73.02;100280.57;130860;1257;106718;-77
2023/10/18 09:33:51;;;;;;;7.80;6.00;;;;;;;8.33;72.35;100276.84;130893;1256;106499;-76
2023/10/18 09:36:58;;;;;;;8.70;6.50;;;;;;;8.41;72.43;100273.53;130925;1267;107100;-76
2023/10/18 09:40:04;;;;;;;9.10;6.20;;;;;;;8.48;70.53;100267.77;130966;1256;107635;-77
2023/10/18 09:43:10;;;;;;;9.70;6.60;;;;;;;8.55;70.83;100261.09;130896;1256;106425;-77
2023/10/18 09:46:16;;;;;;;10.50;7.10;;;;;;;8.60;71.22;100254.60;130871;1257;106952;-77
2023/10/18 09:49:24;;;;;;;8.50;6.60;;;;;;;8.67;71.40;100249.92;130944;1256;108518;-77
2023/10/18 09:52:32;;;;;;;13.40;9.10;;;;;;;8.72;70.49;100250.00;130807;1254;106533;-76
2023/10/18 09:55:42;;;;;;;8.70;6.70;;;;;;;8.79;71.25;100252.52;131034;1253;108089;-75
2023/10/18 09:58:48;;;;;;;9.40;6.60;;;;;;;8.85;71.28;100255.47;130965;1257;106366;-76
2023/10/18 10:02:00;;;;;;;7.80;5.90;;;;;;;8.91;70.00;100254.63;130878;1258;108003;-75
2023/10/18 10:05:24;;;;;;;8.20;6.20;;;;;;;8.93;70.49;100254.61;130911;1253;107529;-75
2023/10/18 10:08:32;;;;;;;7.00;5.80;;;;;;;8.98;70.87;100248.65;130902;1254;107521;-76
2023/10/18 10:11:39;;;;;;;7.30;5.30;;;;;;;9.05;70.43;100251.16;130968;1258;108684;-75
2023/10/18 10:14:44;;;;;;;6.60;4.90;;;;;;;9.13;70.17;100252.27;130941;1252;107120;-75
2023/10/18 10:17:57;;;;;;;7.90;5.60;;;;;;;9.19;68.98;100248.98;130897;1255;108264;-75
2023/10/18 10:21:08;;;;;;;8.40;4.70;;;;;;;9.27;69.03;100249.34;130891;1255;107916;-76
2023/10/18 10:24:32;;;;;;;6.60;5.10;;;;;;;9.35;69.28;100240.57;131001;1256;108486;-75
2023/10/18 10:27:49;;;;;;;6.00;4.90;;;;;;;9.45;69.34;100238.73;130879;1256;107874;-78
2023/10/18 10:30:56;;;;;;;7.30;4.30;;;;;;;9.50;66.17;100234.33;130933;1256;107191;-75
2023/10/18 10:34:07;;;;;;;7.20;4.30;;;;;;;9.54;64.50;100231.27;130919;1256;106544;-76
2023/10/18 10:37:18;;;;;;;7.00;4.00;;;;;;;9.57;64.96;100229.95;130934;1256;107505;-75
2023/10/18 10:40:36;;;;;;;5.80;4.50;;;;;;;9.54;63.74;100229.23;130980;1256;107884;-75
2023/10/18 10:44:21;;;;;;;6.20;4.50;;;;;;;9.49;63.93;100227.31;130926;1257;108643;-78
2023/10/18 10:47:30;;;;;;;4.60;3.90;;;;;;;9.42;64.43;100222.60;130904;1257;108525;-78
2023/10/18 10:50:45;;;;;;;4.90;4.00;;;;;;;9.46;64.99;100223.40;130856;1257;106950;-75
2023/10/18 10:53:57;;;;;;;5.40;4.40;;;;;;;9.45;65.34;100223.61;130880;1253;107227;-76
2023/10/18 10:57:08;;;;;;;5.90;4.00;;;;;;;9.35;65.84;100219.20;131036;1253;108356;-75
2023/10/18 11:03:54;;;;;;;4.40;3.50;;;;;;;9.22;64.82;100209.48;130841;1254;108524;-77
2023/10/18 11:07:04;;;;;;;5.30;4.10;;;;;;;9.17;64.86;100203.41;131007;1258;108774;-76
2023/10/18 11:10:17;;;;;;;4.10;3.30;;;;;;;9.21;65.26;100198.05;131011;1258;108366;-76
2023/10/18 11:13:25;;;;;;;5.90;3.90;;;;;;;9.29;64.18;100198.52;131006;1254;107448;-76
2023/10/18 11:16:30;;;;;;;4.60;3.40;;;;;;;9.37;63.22;100194.93;130742;1267;108684;-76
2023/10/18 11:19:40;;;;;;;4.40;3.20;;;;;;;9.43;64.64;100190.08;130920;1257;107685;-76
2023/10/18 11:22:50;;;;;;;3.70;3.20;;;;;;;9.44;64.25;100189.83;130892;1254;108367;-76
2023/10/18 11:25:57;;;;;;;5.70;3.90;;;;;;;9.48;64.71;100186.11;130949;1264;108638;-76
2023/10/18 11:29:05;;;;;;;4.50;3.60;;;;;;;9.46;63.81;100186.22;130958;1254;105480;-76
2023/10/18 11:32:17;;;;;;;5.20;3.80;;;;;;;9.48;62.67;100188.20;130955;1256;106770;-77
2023/10/18 11:35:42;;;;;;;4.20;3.20;;;;;;;9.52;63.39;100182.66;131037;1256;106722;-76
2023/10/18 11:42:17;;;;;;;5.50;3.80;;;;;;;9.63;64.20;100166.48;130993;1257;107952;-76
2023/10/18 11:45:27;;;;;;;6.90;4.80;;;;;;;9.69;64.31;100163.91;130843;1256;107675;-77
2023/10/18 11:48:35;;;;;;;5.30;4.00;;;;;;;9.75;64.06;100166.52;130954;1256;107999;-77
2023/10/18 11:51:45;;;;;;;5.50;3.90;;;;;;;9.82;64.19;100165.35;130944;1253;106568;-76
2023/10/18 11:54:53;;;;;;;5.40;4.20;;;;;;;9.85;63.16;100159.08;131012;1253;106314;-76
2023/10/18 11:58:10;;;;;;;6.30;3.50;;;;;;;9.86;62.30;100155.54;130903;1257;106754;-77
2023/10/18 12:01:31;;;;;;;4.00;3.40;;;;;;;9.90;63.08;100153.58;130948;1258;108687;-77
2023/10/18 12:04:38;;;;;;;5.20;3.70;;;;;;;9.94;63.35;100155.30;130885;1257;108229;-77
2023/10/18 12:07:46;;;;;;;5.50;3.70;;;;;;;9.96;62.15;100154.06;130999;1256;108431;-76
2023/10/18 12:10:52;;;;;;;4.50;3.60;;;;;;;9.98;61.82;100147.95;130985;1256;108437;-76
2023/10/18 12:13:57;;;;;;;33.50;18.30;;;;;;;10.01;61.33;100143.19;130927;1256;107787;-75
2023/10/18 12:17:04;;;;;;;10.20;5.70;;;;;;;10.06;61.90;100139.77;130891;1256;107717;-76
2023/10/18 12:20:12;;;;;;;668.50;394.30;;;;;;;10.08;61.74;100131.55;130974;1256;106735;-76
2023/10/18 12:23:19;;;;;;;246.10;106.80;;;;;;;10.11;61.55;100129.48;130897;1256;110653;-78
2023/10/18 12:26:25;;;;;;;203.60;122.60;;;;;;;10.14;62.61;100128.38;130998;1257;107583;-76
2023/10/18 12:29:31;;;;;;;48.00;25.90;;;;;;;10.17;62.65;100122.64;130981;1256;107118;-76
2023/10/18 12:32:42;;;;;;;93.30;50.10;;;;;;;10.20;62.93;100116.99;130931;1256;106133;-76
2023/10/18 12:35:51;;;;;;;17.00;10.60;;;;;;;10.22;62.61;100117.62;130931;1254;107229;-76
2023/10/18 12:38:58;;;;;;;10.90;7.50;;;;;;;10.22;62.31;100114.47;130960;1256;106935;-76
2023/10/18 12:42:05;;;;;;;7.70;5.40;;;;;;;10.23;62.22;100115.25;130936;1256;106945;-77
2023/10/18 12:45:18;;;;;;;85.10;37.50;;;;;;;10.26;62.44;100115.20;130880;1256;107698;-76
2023/10/18 12:48:24;;;;;;;11.00;6.00;;;;;;;10.27;62.48;100111.73;130900;1253;107510;-76
2023/10/18 12:51:31;;;;;;;10.30;6.60;;;;;;;10.26;62.10;100110.91;130924;1252;107654;-76
2023/10/18 12:54:37;;;;;;;7.40;5.90;;;;;;;10.27;62.50;100106.18;131003;1267;106254;-76
2023/10/18 12:57:49;;;;;;;6.50;5.30;;;;;;;10.27;61.63;100105.09;130912;1256;107551;-76
2023/10/18 13:00:55;;;;;;;28.00;17.40;;;;;;;10.26;61.90;100100.43;130939;1253;106527;-76
2023/10/18 13:04:06;;;;;;;26.10;15.20;;;;;;;10.26;62.07;100100.74;130973;1253;106691;-75
2023/10/18 13:07:19;;;;;;;65.90;44.20;;;;;;;10.26;62.24;100099.20;130936;1253;106790;-76
2023/10/18 13:10:31;;;;;;;14.00;9.90;;;;;;;10.26;62.15;100095.29;131013;1253;107787;-76
2023/10/18 13:13:37;;;;;;;10.30;7.60;;;;;;;10.25;62.19;100093.56;130827;1253;107361;-75
2023/10/18 13:16:43;;;;;;;18.00;11.70;;;;;;;10.25;61.67;100088.10;130948;1256;106289;-75
2023/10/18 13:19:49;;;;;;;8.80;6.40;;;;;;;10.25;62.18;100081.30;130877;1255;108570;-75
2023/10/18 13:22:55;;;;;;;18.90;12.80;;;;;;;10.24;61.98;100077.13;130923;1256;107461;-75
2023/10/18 13:26:01;;;;;;;18.10;12.90;;;;;;;10.21;60.82;100077.77;130996;1256;106561;-75
2023/10/18 13:29:13;;;;;;;11.80;7.80;;;;;;;10.20;61.75;100069.36;130931;1256;107704;-76
2023/10/18 13:32:18;;;;;;;15.00;11.70;;;;;;;10.19;62.05;100062.32;130928;1256;108439;-78
2023/10/18 13:35:24;;;;;;;10.00;7.60;;;;;;;10.18;61.62;100060.82;130923;1252;108742;-75
2023/10/18 13:38:30;;;;;;;29.90;20.40;;;;;;;10.17;62.08;100054.64;130889;1256;107494;-76
2023/10/18 13:41:37;;;;;;;24.40;18.30;;;;;;;10.17;62.04;100051.14;130929;1256;106840;-75
2023/10/18 13:44:42;;;;;;;61.40;37.10;;;;;;;10.15;61.87;100049.04;130923;1252;107664;-76
2023/10/18 13:47:48;;;;;;;15.80;10.10;;;;;;;10.13;61.92;100047.45;130853;1256;107601;-75
2023/10/18 13:50:58;;;;;;;15.10;9.50;;;;;;;10.11;61.72;100044.81;130867;1256;107727;-75
2023/10/18 13:54:04;;;;;;;11.20;6.00;;;;;;;10.10;60.61;100044.09;130916;1254;108444;-76
2023/10/18 13:57:09;;;;;;;26.10;17.70;;;;;;;10.06;60.97;100042.63;131001;1256;107003;-76
2023/10/18 14:00:21;;;;;;;10.80;7.10;;;;;;;10.03;60.98;100036.00;130881;1253;107623;-76
2023/10/18 14:03:27;;;;;;;50.10;20.30;;;;;;;10.00;61.22;100037.25;130810;1256;106506;-76
2023/10/18 14:06:33;;;;;;;10.50;5.80;;;;;;;9.95;60.23;100034.94;130871;1256;107758;-76
2023/10/18 14:09:43;;;;;;;20.10;9.90;;;;;;;9.90;60.37;100032.90;130882;1256;107915;-75
2023/10/18 14:12:49;;;;;;;16.90;9.70;;;;;;;9.87;59.85;100031.95;131151;1256;107619;-82
2023/10/18 14:15:54;;;;;;;11.10;5.70;;;;;;;9.86;60.43;100030.88;131697;1253;107847;-77
2023/10/18 14:19:01;;;;;;;10.20;5.80;;;;;;;9.83;60.65;100027.89;131311;1253;107127;-77
2023/10/18 14:22:07;;;;;;;8.20;4.30;;;;;;;9.81;60.97;100029.73;131334;1256;106650;-77
2023/10/18 14:25:16;;;;;;;6.70;4.50;;;;;;;9.77;60.95;100024.95;131630;1255;107715;-78